createdAt,value
2023-04-29T00:00:44.721Z,24
2023-04-29T00:03:16.577Z,24
2023-04-29T00:05:47.608Z,24
2023-04-29T00:08:18.361Z,20
2023-04-29T00:10:49.201Z,24
2023-04-29T00:13:20.094Z,20
2023-04-29T00:15:50.746Z,22
2023-04-29T00:18:22.008Z,20
2023-04-29T00:20:52.838Z,20
2023-04-29T00:23:23.781Z,20
2023-04-29T00:25:55.272Z,20
2023-04-29T00:28:27.160Z,20
2023-04-29T00:30:58.160Z,19
2023-04-29T00:33:28.780Z,20
2023-04-29T00:35:59.601Z,16
2023-04-29T00:38:31.115Z,16
2023-04-29T00:41:01.596Z,16
2023-04-29T00:43:32.513Z,12
2023-04-29T00:46:03.471Z,17
2023-04-29T00:48:34.283Z,16
2023-04-29T00:51:04.850Z,16
2023-04-29T00:53:35.919Z,12
2023-04-29T00:56:07.137Z,16
2023-04-29T00:58:37.507Z,16
2023-04-29T01:01:08.659Z,16
2023-04-29T01:03:40.172Z,16
2023-04-29T01:06:11.167Z,16
2023-04-29T01:08:41.411Z,15
2023-04-29T01:11:12.718Z,20
2023-04-29T01:13:43.904Z,16
2023-04-29T01:16:14.715Z,13
2023-04-29T01:18:45.950Z,16
2023-04-29T01:21:16.527Z,14
2023-04-29T01:23:47.573Z,16
2023-04-29T01:26:18.309Z,16
2023-04-29T01:28:48.911Z,13
2023-04-29T01:31:19.422Z,17
2023-04-29T01:33:50.216Z,13
2023-04-29T01:36:21.113Z,16
2023-04-29T01:38:52.208Z,16
2023-04-29T01:41:22.700Z,12
2023-04-29T01:43:53.808Z,12
2023-04-29T01:46:24.424Z,15
2023-04-29T01:48:55.499Z,13
2023-04-29T01:51:25.958Z,10
2023-04-29T01:53:56.697Z,12
2023-04-29T01:56:27.564Z,12
2023-04-29T01:58:56.762Z,8
2023-04-29T02:01:27.143Z,12
2023-04-29T02:03:57.541Z,16
2023-04-29T02:06:27.873Z,12
2023-04-29T02:08:58.513Z,12
2023-04-29T02:11:29.054Z,12
2023-04-29T02:13:59.726Z,12
2023-04-29T02:16:30.562Z,14
2023-04-29T02:19:01.244Z,15
2023-04-29T02:21:32.069Z,9
2023-04-29T02:24:02.775Z,8
2023-04-29T02:26:33.610Z,12
2023-04-29T02:29:04.281Z,12
2023-04-29T02:31:35.376Z,12
2023-04-29T02:34:06.372Z,16
2023-04-29T02:36:36.970Z,14
2023-04-29T02:39:07.696Z,12
2023-04-29T02:41:38.935Z,12
2023-04-29T02:44:09.679Z,12
2023-04-29T02:46:40.678Z,12
2023-04-29T02:49:11.748Z,11
2023-04-29T02:51:42.795Z,11
2023-04-29T02:54:13.006Z,12
2023-04-29T02:56:44.009Z,12
2023-04-29T02:59:14.891Z,8
2023-04-29T03:01:46.258Z,8
2023-04-29T03:04:17.497Z,8
2023-04-29T03:06:48.185Z,8
2023-04-29T03:09:19.148Z,12
2023-04-29T03:11:50.080Z,8
2023-04-29T03:14:20.919Z,9
2023-04-29T03:16:51.175Z,12
2023-04-29T03:19:22.246Z,12
2023-04-29T03:21:53.986Z,12
2023-04-29T03:24:24.271Z,12
2023-04-29T03:26:55.098Z,12
2023-04-29T03:29:26.066Z,12
2023-04-29T03:31:57.287Z,12
2023-04-29T03:34:27.886Z,12
2023-04-29T03:36:58.750Z,12
2023-04-29T03:39:30.267Z,12
2023-04-29T03:42:01.598Z,13
2023-04-29T03:44:33.090Z,16
2023-04-29T03:47:04.112Z,12
2023-04-29T03:49:34.889Z,13
2023-04-29T03:52:05.927Z,12
2023-04-29T03:54:36.797Z,15
2023-04-29T03:57:07.783Z,12
2023-04-29T03:59:38.737Z,12
2023-04-29T04:02:09.853Z,12
2023-04-29T04:04:41.248Z,12
2023-04-29T04:07:11.929Z,16
2023-04-29T04:09:42.636Z,16
2023-04-29T04:12:13.327Z,12
2023-04-29T04:14:43.770Z,16
2023-04-29T04:17:14.897Z,16
2023-04-29T04:19:45.842Z,12
2023-04-29T04:22:16.983Z,12
2023-04-29T04:24:48.428Z,12
2023-04-29T04:27:20.017Z,12
2023-04-29T04:29:50.495Z,14
2023-04-29T04:32:21.543Z,16
2023-04-29T04:34:52.183Z,16
2023-04-29T04:37:22.760Z,16
2023-04-29T04:39:54.195Z,15
2023-04-29T04:42:24.881Z,16
2023-04-29T04:44:56.149Z,16
2023-04-29T04:47:26.897Z,16
2023-04-29T04:49:57.291Z,12
2023-04-29T04:52:28.426Z,16
2023-04-29T04:54:59.376Z,16
2023-04-29T04:57:30.082Z,12
2023-04-29T05:00:01.583Z,12
2023-04-29T05:02:32.717Z,15
2023-04-29T05:05:03.555Z,12
2023-04-29T05:07:34.632Z,16
2023-04-29T05:10:05.132Z,12
2023-04-29T05:12:36.176Z,16
2023-04-29T05:15:07.192Z,20
2023-04-29T06:33:40.032Z,21
2023-04-29T06:36:19.595Z,20
2023-04-29T06:38:49.608Z,20
2023-04-29T06:41:23.819Z,24
2023-04-29T06:44:04.494Z,20
2023-04-29T06:46:34.989Z,20
2023-04-29T06:49:07.166Z,23
2023-04-29T06:51:38.129Z,20
2023-04-29T06:54:14.496Z,20
2023-04-29T06:56:45.246Z,20
2023-04-29T06:59:16.880Z,20
2023-04-29T07:01:49.785Z,24
2023-04-29T07:04:18.134Z,22
2023-04-29T07:06:48.949Z,28
2023-04-29T07:09:20.763Z,21
2023-04-29T07:11:49.951Z,20
2023-04-29T07:14:20.803Z,20
2023-04-29T07:16:51.622Z,20
2023-04-29T07:19:23.187Z,20
2023-04-29T07:21:53.525Z,16
2023-04-29T07:24:24.255Z,20
2023-04-29T07:26:55.099Z,16
2023-04-29T07:29:24.251Z,16
2023-04-29T07:31:54.096Z,16
2023-04-29T07:34:27.192Z,14
2023-04-29T07:36:58.030Z,16
2023-04-29T07:39:26.696Z,13
2023-04-29T07:41:59.305Z,16
2023-04-29T07:44:29.862Z,16
2023-04-29T07:47:00.305Z,16
2023-04-29T07:49:31.882Z,30
2023-04-29T07:52:03.909Z,18
2023-04-29T07:54:34.401Z,16
2023-04-29T07:57:04.388Z,16
2023-04-29T07:59:38.102Z,20
2023-04-29T08:02:08.102Z,19
2023-04-29T08:04:41.177Z,16
2023-04-29T08:07:11.504Z,16
2023-04-29T08:09:43.147Z,15
2023-04-29T08:12:12.097Z,12
2023-04-29T08:14:44.003Z,12
2023-04-29T08:17:14.891Z,12
2023-04-29T08:19:45.556Z,20
2023-04-29T08:22:15.918Z,16
2023-04-29T08:24:46.460Z,15
2023-04-29T08:27:18.163Z,14
2023-04-29T08:29:48.652Z,13
2023-04-29T08:32:19.180Z,13
2023-04-29T08:34:51.356Z,13
2023-04-29T08:37:21.484Z,11
2023-04-29T08:39:52.288Z,12
2023-04-29T08:42:23.036Z,16
2023-04-29T08:44:53.516Z,16
2023-04-29T08:47:25.185Z,12
2023-04-29T08:49:55.648Z,12
2023-04-29T08:52:27.330Z,12
2023-04-29T08:54:59.230Z,9
2023-04-29T08:57:28.729Z,11
2023-04-29T09:00:00.323Z,8
2023-04-29T09:02:30.919Z,12
2023-04-29T09:05:01.563Z,8
2023-04-29T09:07:32.344Z,9
2023-04-29T09:10:01.314Z,8
2023-04-29T09:12:31.546Z,12
2023-04-29T09:15:03.146Z,16
2023-04-29T09:17:39.941Z,16
2023-04-29T09:22:43.886Z,12
2023-04-29T09:25:14.327Z,16
2023-04-29T09:27:44.747Z,12
2023-04-29T09:30:15.203Z,12
2023-04-29T09:32:44.327Z,7
2023-04-29T09:35:14.620Z,12
2023-04-29T09:37:46.620Z,16
2023-04-29T09:40:17.631Z,20
2023-04-29T09:42:49.413Z,12
2023-04-29T09:45:20.469Z,12
2023-04-29T09:47:52.124Z,16
2023-04-29T09:50:23.392Z,12
2023-04-29T09:52:54.465Z,12
2023-04-29T09:55:25.348Z,12
2023-04-29T09:57:54.532Z,15
2023-04-29T10:00:25.586Z,18
2023-04-29T10:02:55.821Z,12
2023-04-29T10:05:26.671Z,12
2023-04-29T10:07:57.162Z,9
2023-04-29T10:10:29.581Z,15
2023-04-29T10:12:58.304Z,11
2023-04-29T10:15:29.037Z,12
2023-04-29T10:17:59.730Z,8
2023-04-29T10:20:33.109Z,10
2023-04-29T10:23:08.779Z,12
2023-04-29T10:25:39.313Z,12
2023-04-29T10:28:08.287Z,12
2023-04-29T10:30:39.236Z,16
2023-04-29T10:33:10.754Z,16
2023-04-29T10:35:40.747Z,16
2023-04-29T10:38:11.523Z,12
2023-04-29T10:40:41.922Z,8
2023-04-29T10:43:12.574Z,16
2023-04-29T10:45:43.407Z,12
2023-04-29T10:48:14.562Z,13
2023-04-29T10:50:46.197Z,13
2023-04-29T10:53:17.993Z,12
2023-04-29T10:55:49.780Z,12
2023-04-29T10:58:20.379Z,8
2023-04-29T11:00:50.703Z,8
2023-04-29T11:03:22.349Z,8
2023-04-29T11:05:54.896Z,8
2023-04-29T11:08:25.992Z,16
2023-04-29T11:10:57.223Z,9
2023-04-29T11:13:27.984Z,12
2023-04-29T11:15:58.343Z,8
2023-04-29T11:18:28.904Z,12
2023-04-29T11:20:59.724Z,16
2023-04-29T11:23:30.892Z,12
2023-04-29T11:26:04.067Z,8
2023-04-29T11:28:34.425Z,15
2023-04-29T11:31:04.886Z,16
2023-04-29T11:33:35.403Z,20
2023-04-29T11:36:05.713Z,28
2023-04-29T11:38:43.216Z,12
2023-04-29T11:41:12.272Z,12
2023-04-29T11:43:44.284Z,20
2023-04-29T11:46:15.090Z,20
2023-04-29T11:48:45.597Z,20
2023-04-29T11:51:14.787Z,12
2023-04-29T11:53:45.657Z,16
2023-04-29T11:56:16.133Z,20
2023-04-29T11:58:46.752Z,12
2023-04-29T12:01:17.076Z,8
2023-04-29T12:03:46.695Z,8
2023-04-29T12:06:18.680Z,12
2023-04-29T12:08:49.041Z,12
2023-04-29T12:11:20.211Z,11
2023-04-29T12:13:52.364Z,8
2023-04-29T12:16:22.681Z,8
2023-04-29T12:18:54.180Z,8
2023-04-29T12:21:24.722Z,8
2023-04-29T12:23:56.564Z,8
2023-04-29T12:26:27.917Z,8
2023-04-29T12:28:58.646Z,8
2023-04-29T12:31:29.371Z,8
2023-04-29T12:34:00.055Z,9
2023-04-29T12:36:38.019Z,8
2023-04-29T12:39:12.187Z,8
2023-04-29T12:41:43.315Z,8
2023-04-29T12:44:12.867Z,10
2023-04-29T12:46:44.054Z,8
2023-04-29T12:49:13.829Z,8
2023-04-29T12:51:44.253Z,8
2023-04-29T12:54:16.000Z,8
2023-04-29T12:56:47.503Z,12
2023-04-29T12:59:18.136Z,12
2023-04-29T13:01:49.116Z,8
2023-04-29T13:04:19.148Z,8
2023-04-29T13:06:50.924Z,12
2023-04-29T13:09:24.201Z,8
2023-04-29T13:11:55.756Z,8
2023-04-29T13:14:26.932Z,12
2023-04-29T13:16:59.618Z,8
2023-04-29T13:19:43.952Z,8
2023-04-29T13:22:01.625Z,8
2023-04-29T13:24:32.202Z,12
2023-04-29T13:27:02.876Z,8
2023-04-29T13:29:33.628Z,8
2023-04-29T13:32:05.709Z,8
2023-04-29T13:34:36.263Z,8
2023-04-29T13:37:06.948Z,8
2023-04-29T13:39:38.669Z,8
2023-04-29T13:42:10.423Z,10
2023-04-29T13:47:11.188Z,11
2023-04-29T13:55:04.038Z,12
2023-04-29T13:59:52.770Z,12
2023-04-29T14:02:25.355Z,12
2023-04-29T14:04:52.617Z,10
2023-04-29T14:07:23.208Z,8
2023-04-29T14:09:53.596Z,10
2023-04-29T14:12:22.706Z,12
2023-04-29T14:14:53.262Z,16
2023-04-29T14:17:24.743Z,12
2023-04-29T14:19:56.205Z,15
2023-04-29T14:22:27.217Z,9
2023-04-29T14:24:57.848Z,9
2023-04-29T14:27:28.459Z,12
2023-04-29T14:29:59.237Z,8
2023-04-29T14:32:30.310Z,8
2023-04-29T14:35:03.533Z,12
2023-04-29T14:37:34.143Z,8
2023-04-29T14:40:04.171Z,8
2023-04-29T14:45:12.946Z,8
2023-04-29T14:47:42.992Z,12
2023-04-29T14:50:13.132Z,12
2023-04-29T14:52:43.320Z,10
2023-04-29T14:55:14.301Z,12
2023-04-29T14:57:44.758Z,12
2023-04-29T15:00:14.813Z,12
2023-04-29T15:02:44.611Z,8
2023-04-29T15:05:15.689Z,12
2023-04-29T15:07:50.201Z,12
2023-04-29T15:10:21.930Z,12
2023-04-29T15:12:53.048Z,12
2023-04-29T15:15:23.533Z,12
2023-04-29T15:17:54.801Z,8
2023-04-29T15:20:24.945Z,9
2023-04-29T15:22:55.600Z,11
2023-04-29T15:25:31.124Z,8
2023-04-29T15:28:03.114Z,12
2023-04-29T15:30:33.628Z,11
2023-04-29T15:33:05.630Z,8
2023-04-29T15:35:35.525Z,8
2023-04-29T15:38:07.260Z,8
2023-04-29T15:40:37.907Z,12
2023-04-29T15:43:10.446Z,8
2023-04-29T15:45:41.261Z,16
2023-04-29T15:48:12.124Z,12
2023-04-29T15:50:42.502Z,12
2023-04-29T15:53:15.743Z,11
2023-04-29T15:55:46.496Z,12
2023-04-29T15:58:15.549Z,12
2023-04-29T16:00:46.181Z,8
2023-04-29T16:03:16.851Z,14
2023-04-29T16:05:47.291Z,14
2023-04-29T16:08:18.794Z,9
2023-04-29T16:10:50.148Z,8
2023-04-29T16:13:20.816Z,10
2023-04-29T16:15:51.909Z,12
2023-04-29T16:18:22.259Z,8
2023-04-29T16:20:52.889Z,8
2023-04-29T16:23:23.208Z,8
2023-04-29T16:25:53.702Z,8
2023-04-29T16:28:25.366Z,10
2023-04-29T16:30:55.946Z,12
2023-04-29T16:33:28.832Z,12
2023-04-29T16:36:02.522Z,12
2023-04-29T16:38:34.249Z,12
2023-04-29T16:41:05.933Z,9
2023-04-29T16:46:28.572Z,8
2023-04-29T16:49:03.796Z,8
2023-04-29T16:51:33.831Z,8
2023-04-29T16:54:04.466Z,8
2023-04-29T16:56:34.605Z,8
2023-04-29T16:59:05.508Z,8
2023-04-29T17:01:37.232Z,8
2023-04-29T17:04:08.022Z,8
2023-04-29T17:06:38.580Z,8
2023-04-29T17:09:09.092Z,8
2023-04-29T17:11:40.075Z,8
2023-04-29T17:14:10.617Z,12
2023-04-29T17:16:41.002Z,9
2023-04-29T17:19:12.598Z,8
2023-04-29T17:21:47.078Z,8
2023-04-29T17:24:18.859Z,12
2023-04-29T17:26:49.447Z,8
2023-04-29T17:29:21.048Z,8
2023-04-29T17:31:51.677Z,8
2023-04-29T17:34:21.154Z,8
2023-04-29T17:36:51.531Z,10
2023-04-29T17:39:20.684Z,12
2023-04-29T17:41:51.342Z,12
2023-04-29T17:44:23.686Z,9
2023-04-29T17:46:57.024Z,9
2023-04-29T17:49:28.046Z,8
2023-04-29T17:52:00.765Z,12
2023-04-29T17:54:31.536Z,12
2023-04-29T17:57:05.691Z,12
2023-04-29T17:59:37.523Z,8
2023-04-29T18:02:09.638Z,8
2023-04-29T18:04:41.901Z,12
2023-04-29T18:07:13.937Z,8
2023-04-29T18:09:44.265Z,9
2023-04-29T18:12:14.709Z,20
2023-04-29T18:14:44.989Z,16
2023-04-29T18:17:15.805Z,12
2023-04-29T18:19:50.240Z,12
2023-04-29T18:22:20.216Z,12
2023-04-29T18:24:51.107Z,11
2023-04-29T18:27:24.301Z,12
2023-04-29T18:29:55.368Z,12
2023-04-29T18:32:25.629Z,15
2023-04-29T18:34:56.412Z,16
2023-04-29T18:37:27.214Z,16
2023-04-29T18:39:59.076Z,12
2023-04-29T18:42:31.774Z,13
2023-04-29T18:45:02.602Z,16
2023-04-29T18:47:33.184Z,16
2023-04-29T18:50:04.642Z,20
2023-04-29T18:52:35.645Z,20
2023-04-29T18:55:06.104Z,20
2023-04-29T18:57:36.861Z,20
2023-04-29T19:00:08.109Z,20
2023-04-29T19:02:39.366Z,20
2023-04-29T19:05:08.428Z,20
2023-04-29T19:07:39.298Z,20
2023-04-29T19:10:09.560Z,20
2023-04-29T19:12:43.314Z,20
2023-04-29T19:15:13.854Z,20
2023-04-29T19:17:44.321Z,20
2023-04-29T19:20:14.580Z,20
2023-04-29T19:22:45.019Z,19
2023-04-29T19:25:15.829Z,16
2023-04-29T19:27:51.350Z,15
2023-04-29T19:30:21.927Z,13
2023-04-29T19:32:52.872Z,16
2023-04-29T19:35:23.165Z,16
2023-04-29T19:37:59.740Z,20
2023-04-29T19:40:36.137Z,16
2023-04-29T19:43:12.320Z,20
2023-04-29T19:45:42.796Z,20
2023-04-29T19:49:52.282Z,20
2023-04-29T19:52:24.655Z,21
2023-04-29T19:54:54.939Z,24
2023-04-29T19:57:45.800Z,25
2023-04-29T20:16:19.406Z,20
2023-04-29T20:18:51.193Z,25
2023-04-29T20:21:21.588Z,24
2023-04-29T20:23:51.941Z,20
2023-04-29T20:29:00.454Z,32
2023-04-29T20:31:31.593Z,32
2023-04-29T20:34:02.039Z,32
2023-04-29T20:36:32.673Z,32
2023-04-29T20:39:03.445Z,32
2023-04-29T20:41:34.310Z,32
2023-04-29T20:44:04.974Z,31
2023-04-29T20:46:35.433Z,32
2023-04-29T20:49:06.431Z,32
2023-04-29T20:51:37.167Z,32
2023-04-29T20:54:07.854Z,32
2023-04-29T20:56:38.786Z,32
2023-04-29T20:59:09.258Z,28
2023-04-29T21:01:38.504Z,30
2023-04-29T21:04:08.872Z,29
2023-04-29T21:06:39.217Z,28
2023-04-29T21:09:10.778Z,28
2023-04-29T21:11:42.511Z,28
2023-04-29T21:14:14.225Z,28
2023-04-29T21:16:51.707Z,27
2023-04-29T21:19:35.229Z,27
2023-04-29T21:22:05.344Z,28
2023-04-29T21:24:38.217Z,27
2023-04-29T21:27:07.469Z,25
2023-04-29T21:29:37.732Z,24
2023-04-29T21:32:09.473Z,24
2023-04-29T21:34:40.134Z,24
2023-04-29T21:37:11.073Z,24
2023-04-29T21:39:41.900Z,20
2023-04-29T21:42:12.148Z,21
2023-04-29T21:47:28.657Z,24
2023-04-29T21:49:59.224Z,24
2023-04-29T21:52:32.105Z,26
2023-04-29T21:55:07.170Z,24
2023-04-29T21:57:43.954Z,27
2023-04-29T22:00:06.076Z,27
2023-04-29T22:02:36.947Z,27
2023-04-29T22:05:07.464Z,28
2023-04-29T22:07:38.076Z,28
2023-04-29T22:10:09.036Z,28
2023-04-29T22:12:39.713Z,24
2023-04-29T22:15:20.931Z,25
2023-04-29T22:17:42.423Z,27
2023-04-29T22:20:13.104Z,25
2023-04-29T22:22:43.552Z,26
2023-04-29T22:25:14.519Z,20
2023-04-29T22:27:45.584Z,22
2023-04-29T22:30:16.942Z,24
2023-04-29T22:32:48.174Z,24
2023-04-29T22:35:20.148Z,24
2023-04-29T22:37:56.377Z,24
2023-04-29T22:46:05.897Z,24
2023-04-29T22:48:36.773Z,24
2023-04-29T22:51:07.770Z,24
2023-04-29T22:53:38.509Z,24
2023-04-29T22:56:09.220Z,24
2023-04-29T22:58:39.939Z,24
2023-04-29T23:01:12.074Z,24
2023-04-29T23:03:42.576Z,28
2023-04-29T23:06:13.650Z,25
2023-04-29T23:08:44.260Z,28
2023-04-29T23:11:15.237Z,24
2023-04-29T23:13:45.955Z,24
2023-04-29T23:16:17.256Z,24
2023-04-29T23:18:49.724Z,24
2023-04-29T23:21:25.665Z,24
2023-04-29T23:23:56.816Z,24
2023-04-29T23:26:27.383Z,28
2023-04-29T23:28:59.006Z,24
2023-04-29T23:31:29.742Z,27
2023-04-29T23:34:01.536Z,28
2023-04-29T23:36:32.557Z,28
2023-04-29T23:39:03.316Z,28
2023-04-29T23:41:34.326Z,27
2023-04-29T23:44:04.682Z,24
2023-04-29T23:46:33.735Z,27
2023-04-29T23:49:04.040Z,26
2023-04-29T23:51:33.451Z,24
2023-04-29T23:54:04.422Z,25
2023-04-29T23:56:40.877Z,24
2023-04-29T23:59:11.872Z,28
